FMEP/ZSE METAR and TAF weather

Enter ICAO airport designator
Station Type Date Time Source
FMEP METAR 2019/04/25 02:00 UTC NOAA

FMEP 250200Z AUTO 06006KT 9999 SCT024 BKN033 BKN058 24/16 Q1015


Station Type Date Time Source
FMEP Decoded METAR 2019/04/25 02:00 UTC NOAA

Saint-Pierre, Reunion (FMEP) 21-20S 055-29E 53M
Apr 24, 2019 - 10:00 PM EDT / 2019.04.25 0200 UTC
Wind: from the ENE (060 degrees) at 7 MPH (6 KT):0
Visibility: greater than 7 mile(s):0
Sky conditions: mostly cloudy
Temperature: 75 F (24 C)
Dew Point: 60 F (16 C)
Relative Humidity: 60%
Pressure (altimeter): 29.97 in. Hg (1015 hPa)
ob: FMEP 250200Z AUTO 06006KT 9999 SCT024 BKN033 BKN058 24/16 Q1015
cycle: 2

Station Type Date Time Source
FMEP TAF 2019/01/07 12:00 UTC NOAA

TAF FMEP 071100Z 0712/0721 VRB02KT 6000 FEW030CB SCT050 BKN100
TEMPO 0712/0721 2000 TSRA SCT026CB

Example: see airport list